createdAt,value
2018-09-13T00:01:00.196Z,21.74
2018-09-13T00:01:59.835Z,21.68
2018-09-13T00:03:00.142Z,21.61
2018-09-13T00:04:00.139Z,21.51
2018-09-13T00:04:59.980Z,21.51
2018-09-13T00:06:00.814Z,21.48
2018-09-13T00:06:59.788Z,21.53
2018-09-13T00:07:59.915Z,21.58
2018-09-13T00:08:59.714Z,21.59
2018-09-13T00:09:59.718Z,21.56
2018-09-13T00:10:59.802Z,21.55
2018-09-13T00:11:59.822Z,21.51
2018-09-13T00:12:59.870Z,21.43
2018-09-13T00:13:59.829Z,21.48
2018-09-13T00:14:59.781Z,21.44
2018-09-13T00:16:00.055Z,21.38
2018-09-13T00:16:59.727Z,21.41
2018-09-13T00:18:00.140Z,21.39
2018-09-13T00:18:59.882Z,21.35
2018-09-13T00:19:59.731Z,21.28
2018-09-13T00:20:59.790Z,21.23
2018-09-13T00:21:59.764Z,21.23
2018-09-13T00:22:59.902Z,21.13
2018-09-13T00:23:59.744Z,21.16
2018-09-13T00:24:59.910Z,21.19
2018-09-13T00:25:59.867Z,21.14
2018-09-13T00:26:59.897Z,21.11
2018-09-13T00:27:59.883Z,21
2018-09-13T00:28:59.778Z,21.02
2018-09-13T00:29:59.946Z,20.97
2018-09-13T00:30:59.928Z,21.02
2018-09-13T00:32:00.061Z,21
2018-09-13T00:33:00.142Z,20.95
2018-09-13T00:33:59.773Z,20.98
2018-09-13T00:34:59.966Z,21
2018-09-13T00:35:59.834Z,20.98
2018-09-13T00:36:59.963Z,21.02
2018-09-13T00:37:59.898Z,21.06
2018-09-13T00:38:59.790Z,21.02
2018-09-13T00:39:59.904Z,20.94
2018-09-13T00:40:59.742Z,20.87
2018-09-13T00:41:59.841Z,20.76
2018-09-13T00:42:59.879Z,20.75
2018-09-13T00:43:59.783Z,20.76
2018-09-13T00:44:59.762Z,20.77
2018-09-13T00:45:59.781Z,20.77
2018-09-13T00:46:59.794Z,20.69
2018-09-13T00:47:59.806Z,20.63
2018-09-13T00:49:00.134Z,20.59
2018-09-13T00:49:59.729Z,20.58
2018-09-13T00:50:59.922Z,20.57
2018-09-13T00:51:59.835Z,20.55
2018-09-13T00:52:59.865Z,20.58
2018-09-13T00:54:00.075Z,20.6
2018-09-13T00:54:59.913Z,20.64
2018-09-13T00:55:59.783Z,20.58
2018-09-13T00:56:59.759Z,20.56
2018-09-13T00:57:59.796Z,20.51
2018-09-13T00:59:00.614Z,20.58
2018-09-13T00:59:59.797Z,20.58
2018-09-13T01:01:00.114Z,20.6
2018-09-13T01:01:59.858Z,20.62
2018-09-13T01:02:59.801Z,20.65
2018-09-13T01:03:59.884Z,20.67
2018-09-13T01:04:59.785Z,20.72
2018-09-13T01:05:59.782Z,20.74
2018-09-13T01:06:59.774Z,20.78
2018-09-13T01:07:59.777Z,20.63
2018-09-13T01:08:59.850Z,20.62
2018-09-13T01:09:59.765Z,20.67
2018-09-13T01:10:59.797Z,20.67
2018-09-13T01:11:59.832Z,20.73
2018-09-13T01:12:59.829Z,20.78
2018-09-13T01:13:59.881Z,20.81
2018-09-13T01:14:59.889Z,20.78
2018-09-13T01:15:59.908Z,20.63
2018-09-13T01:16:59.802Z,20.67
2018-09-13T01:17:59.770Z,20.7
2018-09-13T01:18:59.800Z,20.62
2018-09-13T01:20:00.592Z,20.58
2018-09-13T01:21:00.138Z,20.65
2018-09-13T01:21:59.762Z,20.66
2018-09-13T01:22:59.987Z,20.62
2018-09-13T01:23:59.846Z,20.62
2018-09-13T01:24:59.825Z,20.58
2018-09-13T01:26:00.193Z,20.59
2018-09-13T01:26:59.823Z,20.6
2018-09-13T01:27:59.842Z,20.48
2018-09-13T01:28:59.881Z,20.46
2018-09-13T01:29:59.856Z,20.47
2018-09-13T01:30:59.994Z,20.45
2018-09-13T01:31:59.844Z,20.49
2018-09-13T01:32:59.819Z,20.53
2018-09-13T01:33:59.787Z,20.56
2018-09-13T01:34:59.805Z,20.55
2018-09-13T01:35:59.825Z,20.57
2018-09-13T01:37:00.066Z,20.45
2018-09-13T01:37:59.787Z,20.46
2018-09-13T01:38:59.802Z,20.5
2018-09-13T01:40:00.208Z,20.52
2018-09-13T01:41:00.218Z,20.51
2018-09-13T01:41:59.805Z,20.51
2018-09-13T01:42:59.816Z,20.52
2018-09-13T01:43:59.801Z,20.54
2018-09-13T01:44:59.990Z,20.59
2018-09-13T01:46:00.337Z,20.6
2018-09-13T01:46:59.834Z,20.63
2018-09-13T01:48:01.136Z,20.66
2018-09-13T01:48:59.806Z,20.67
2018-09-13T01:49:59.819Z,20.67
2018-09-13T01:50:59.794Z,20.69
2018-09-13T01:52:00.569Z,20.61
2018-09-13T01:52:59.875Z,20.6
2018-09-13T01:53:59.898Z,20.62
2018-09-13T01:54:59.899Z,20.63
2018-09-13T01:56:00.056Z,20.65
2018-09-13T01:57:00.002Z,20.66
2018-09-13T01:57:59.812Z,20.68
2018-09-13T01:58:59.924Z,20.69
2018-09-13T02:00:00.131Z,20.69
2018-09-13T02:01:00.134Z,20.7
2018-09-13T02:01:59.800Z,20.69
2018-09-13T02:02:59.823Z,20.7
2018-09-13T02:03:59.830Z,20.69
2018-09-13T02:04:59.853Z,20.69
2018-09-13T02:06:00.055Z,20.7
2018-09-13T02:06:59.824Z,20.64
2018-09-13T02:07:59.990Z,20.59
2018-09-13T02:08:59.888Z,20.57
2018-09-13T02:09:59.851Z,20.49
2018-09-13T02:11:00.375Z,20.39
2018-09-13T02:11:59.897Z,20.32
2018-09-13T02:12:59.863Z,20.26
2018-09-13T02:13:59.912Z,20.24
2018-09-13T02:15:00.138Z,20.21
2018-09-13T02:15:59.898Z,20.18
2018-09-13T02:16:59.965Z,20.21
2018-09-13T02:17:59.822Z,20.22
2018-09-13T02:18:59.834Z,20.25
2018-09-13T02:19:59.866Z,20.26
2018-09-13T02:20:59.851Z,20.27
2018-09-13T02:21:59.836Z,20.27
2018-09-13T02:22:59.819Z,20.31
2018-09-13T02:23:59.836Z,20.3
2018-09-13T02:24:59.812Z,20.32
2018-09-13T02:25:59.860Z,20.31
2018-09-13T02:26:59.855Z,20.33
2018-09-13T02:27:59.809Z,20.34
2018-09-13T02:28:59.823Z,20.34
2018-09-13T02:29:59.852Z,20.37
2018-09-13T02:30:59.894Z,20.35
2018-09-13T02:31:59.836Z,20.39
2018-09-13T02:32:59.908Z,20.4
2018-09-13T02:33:59.893Z,20.39
2018-09-13T02:34:59.912Z,20.39
2018-09-13T02:35:59.854Z,20.39
2018-09-13T02:36:59.823Z,20.31
2018-09-13T02:37:59.840Z,20.12
2018-09-13T02:39:00.116Z,19.98
2018-09-13T02:40:00.080Z,20.01
2018-09-13T02:40:59.840Z,20.05
2018-09-13T02:41:59.833Z,20.02
2018-09-13T02:43:00.220Z,19.96
2018-09-13T02:43:59.911Z,19.86
2018-09-13T02:45:00.197Z,19.74
2018-09-13T02:46:00.069Z,19.69
2018-09-13T02:47:00.074Z,19.6
2018-09-13T02:47:59.876Z,19.64
2018-09-13T02:49:00.367Z,19.67
2018-09-13T02:50:00.072Z,19.74
2018-09-13T02:50:59.883Z,19.78
2018-09-13T02:51:59.889Z,19.8
2018-09-13T02:52:59.869Z,19.83
2018-09-13T02:53:59.879Z,19.87
2018-09-13T02:54:59.856Z,19.86
2018-09-13T02:55:59.849Z,19.88
2018-09-13T02:57:00.025Z,19.92
2018-09-13T02:57:59.975Z,19.92
2018-09-13T02:59:00.156Z,19.94
2018-09-13T02:59:59.944Z,19.88
2018-09-13T03:00:59.834Z,19.83
2018-09-13T03:01:59.919Z,19.8
2018-09-13T03:02:59.972Z,19.77
2018-09-13T03:04:00.184Z,19.76
2018-09-13T03:04:59.952Z,19.61
2018-09-13T03:06:00.373Z,19.56
2018-09-13T03:06:59.926Z,19.48
2018-09-13T03:08:00.075Z,19.36
2018-09-13T03:09:00.091Z,19.31
2018-09-13T03:10:00.750Z,19.25
2018-09-13T03:11:00.187Z,19.19
2018-09-13T03:12:00.201Z,19.21
2018-09-13T03:13:00.133Z,19.29
2018-09-13T03:14:00.205Z,19.26
2018-09-13T03:15:00.365Z,19.3
2018-09-13T03:16:00.181Z,19.32
2018-09-13T03:17:00.077Z,19.34
2018-09-13T03:18:00.253Z,19.26
2018-09-13T03:19:00.243Z,19.19
2018-09-13T03:19:59.899Z,19.19
2018-09-13T03:20:59.873Z,19.03
2018-09-13T03:21:59.875Z,18.95
2018-09-13T03:23:00.570Z,18.98
2018-09-13T03:23:59.950Z,18.86
2018-09-13T03:24:59.955Z,18.82
2018-09-13T03:25:59.882Z,18.92
2018-09-13T03:27:00.123Z,18.95
2018-09-13T03:27:59.904Z,18.96
2018-09-13T03:28:59.976Z,18.91
2018-09-13T03:30:00.309Z,18.89
2018-09-13T03:30:59.890Z,18.82
2018-09-13T03:32:00.399Z,18.9
2018-09-13T03:32:59.889Z,18.91
2018-09-13T03:34:00.452Z,18.85
2018-09-13T03:35:00.116Z,18.71
2018-09-13T03:35:59.968Z,18.57
2018-09-13T03:37:00.280Z,18.6
2018-09-13T03:38:00.076Z,18.5
2018-09-13T03:39:00.220Z,18.6
2018-09-13T03:39:59.919Z,18.67
2018-09-13T03:41:00.119Z,18.63
2018-09-13T03:42:00.536Z,18.5
2018-09-13T03:42:59.904Z,18.54
2018-09-13T03:43:59.900Z,18.54
2018-09-13T03:44:59.911Z,18.6
2018-09-13T03:45:59.888Z,18.64
2018-09-13T03:47:00.074Z,18.69
2018-09-13T03:47:59.885Z,18.74
2018-09-13T03:49:00.137Z,18.75
2018-09-13T03:49:59.959Z,18.8
2018-09-13T03:50:59.987Z,18.84
2018-09-13T03:51:59.927Z,18.88
2018-09-13T03:52:59.930Z,18.87
2018-09-13T03:53:59.972Z,18.73
2018-09-13T03:55:00.104Z,18.68
2018-09-13T03:55:59.993Z,18.61
2018-09-13T03:56:59.954Z,18.58
2018-09-13T03:57:59.951Z,18.4
2018-09-13T03:58:59.954Z,18.51
2018-09-13T04:00:00.723Z,18.43
2018-09-13T04:00:59.926Z,18.45
2018-09-13T04:01:59.948Z,18.47
2018-09-13T04:02:59.912Z,18.49
2018-09-13T04:04:00.143Z,18.4
2018-09-13T04:04:59.941Z,18.38
2018-09-13T04:05:59.912Z,18.21
2018-09-13T04:06:59.889Z,18.25
2018-09-13T04:08:11.346Z,18.22
2018-09-13T04:08:59.930Z,18.28
2018-09-13T04:09:59.897Z,18.31
2018-09-13T04:10:59.925Z,18.24
2018-09-13T04:11:59.972Z,18.28
2018-09-13T04:13:00.440Z,18.28
2018-09-13T04:14:00.184Z,18.25
2018-09-13T04:15:00.165Z,18.29
2018-09-13T04:15:59.933Z,18.32
2018-09-13T04:16:59.882Z,18.36
2018-09-13T04:18:00.082Z,18.4
2018-09-13T04:19:00.278Z,18.43
2018-09-13T04:19:59.976Z,18.42
2018-09-13T04:20:59.920Z,18.39
2018-09-13T04:21:59.989Z,18.32
2018-09-13T04:23:00.580Z,18.28
2018-09-13T04:24:00.228Z,18.18
2018-09-13T04:24:59.928Z,18.12
2018-09-13T04:25:59.991Z,18.15
2018-09-13T04:26:59.892Z,18.17
2018-09-13T04:28:00.048Z,18.2
2018-09-13T04:29:00.150Z,18.21
2018-09-13T04:30:00.094Z,18.27
2018-09-13T04:31:00.163Z,18.3
2018-09-13T04:31:59.978Z,18.32
2018-09-13T04:33:00.434Z,18.35
2018-09-13T04:34:00.148Z,18.24
2018-09-13T04:35:00.094Z,18.25
2018-09-13T04:36:00.869Z,18.2
2018-09-13T04:37:00.196Z,18.1
2018-09-13T04:37:59.962Z,18.11
2018-09-13T04:38:59.957Z,18.15
2018-09-13T04:40:00.316Z,18.17
2018-09-13T04:40:59.955Z,18.24
2018-09-13T04:41:59.988Z,18.25
2018-09-13T04:43:00.015Z,18.27
2018-09-13T04:44:00.429Z,18.3
2018-09-13T04:45:00.074Z,18.22
2018-09-13T04:46:00.198Z,18.24
2018-09-13T04:46:59.942Z,18.24
2018-09-13T04:47:59.947Z,18.25
2018-09-13T04:49:00.426Z,18.27
2018-09-13T04:50:00.190Z,18.3
2018-09-13T04:51:00.026Z,18.29
2018-09-13T04:52:00.563Z,18.32
2018-09-13T04:53:00.532Z,18.36
2018-09-13T04:53:59.964Z,18.36
2018-09-13T04:54:59.942Z,18.31
2018-09-13T04:56:00.221Z,18.28
2018-09-13T04:57:00.162Z,18.27
2018-09-13T04:58:00.009Z,18.23
2018-09-13T04:59:00.091Z,18.21
2018-09-13T04:59:59.919Z,18.22
2018-09-13T05:01:00.156Z,18.27
2018-09-13T05:02:00.139Z,18.31
2018-09-13T05:02:59.948Z,18.31
2018-09-13T05:03:59.944Z,18.31
2018-09-13T05:05:00.379Z,18.34
2018-09-13T05:06:00.190Z,18.36
2018-09-13T05:07:00.032Z,18.38
2018-09-13T05:07:59.929Z,18.38
2018-09-13T05:09:00.286Z,18.4
2018-09-13T05:09:59.981Z,18.39
2018-09-13T05:10:59.967Z,18.31
2018-09-13T05:11:59.958Z,18.31
2018-09-13T05:13:00.022Z,18.29
2018-09-13T05:13:59.964Z,18.32
2018-09-13T05:15:00.185Z,18.32
2018-09-13T05:16:00.084Z,18.28
2018-09-13T05:16:59.939Z,18.3
2018-09-13T05:18:00.127Z,18.29
2018-09-13T05:19:00.176Z,18.32
2018-09-13T05:20:00.184Z,18.32
2018-09-13T05:20:59.950Z,18.32
2018-09-13T05:22:00.110Z,18.32
2018-09-13T05:23:00.409Z,18.28
2018-09-13T05:24:00.165Z,18.18
2018-09-13T05:24:59.931Z,18.09
2018-09-13T05:26:00.080Z,18.06
2018-09-13T05:26:59.966Z,18.06
2018-09-13T05:28:00.126Z,18.11
2018-09-13T05:29:00.167Z,18.1
2018-09-13T05:30:00.706Z,18.15
2018-09-13T05:31:00.284Z,18.13
2018-09-13T05:31:59.947Z,18.17
2018-09-13T05:33:00.482Z,18.17
2018-09-13T05:34:00.138Z,18.18
2018-09-13T05:34:59.985Z,18.17
2018-09-13T05:36:00.094Z,18.2
2018-09-13T05:37:00.223Z,18.17
2018-09-13T05:38:00.010Z,18.2
2018-09-13T05:39:00.869Z,18.2
2018-09-13T05:40:00.244Z,18.18
2018-09-13T05:41:00.244Z,18.13
2018-09-13T05:42:00.210Z,18.12
2018-09-13T05:43:00.137Z,18.02
2018-09-13T05:44:00.097Z,18
2018-09-13T05:45:00.250Z,18
2018-09-13T05:46:00.061Z,18.03
2018-09-13T05:47:00.023Z,18.02
2018-09-13T05:48:00.067Z,17.96
2018-09-13T05:48:59.984Z,18
2018-09-13T05:50:00.746Z,18.01
2018-09-13T05:51:00.669Z,17.99
2018-09-13T05:51:59.969Z,18.03
2018-09-13T05:53:00.047Z,18.08
2018-09-13T05:54:00.101Z,18.08
2018-09-13T05:55:00.093Z,18.08
2018-09-13T05:56:00.131Z,18.02
2018-09-13T05:56:59.993Z,18
2018-09-13T05:58:00.018Z,18.05
2018-09-13T05:59:00.018Z,18.07
2018-09-13T06:00:00.023Z,18.07
2018-09-13T06:01:00.028Z,18.07
2018-09-13T06:02:00.481Z,18
2018-09-13T06:03:00.154Z,17.99
2018-09-13T06:03:59.948Z,17.84
2018-09-13T06:05:00.093Z,17.81
2018-09-13T06:05:59.986Z,17.71
2018-09-13T06:07:00.121Z,17.7
2018-09-13T06:08:00.626Z,17.72
2018-09-13T06:09:00.183Z,17.64
2018-09-13T06:09:59.996Z,17.65
2018-09-13T06:11:00.513Z,17.73
2018-09-13T06:12:00.153Z,17.78
2018-09-13T06:13:00.257Z,17.81
2018-09-13T06:13:59.986Z,17.85
2018-09-13T06:15:00.221Z,17.83
2018-09-13T06:15:59.976Z,17.84
2018-09-13T06:17:00.176Z,17.88
2018-09-13T06:18:00.029Z,17.85
2018-09-13T06:18:59.958Z,17.87
2018-09-13T06:20:00.195Z,17.91
2018-09-13T06:21:00.094Z,17.97
2018-09-13T06:22:00.277Z,17.97
2018-09-13T06:23:00.013Z,17.92
2018-09-13T06:24:00.216Z,17.89
2018-09-13T06:25:00.168Z,17.84
2018-09-13T06:26:00.090Z,17.91
2018-09-13T06:27:00.242Z,17.86
2018-09-13T06:28:00.143Z,17.89
2018-09-13T06:29:00.045Z,17.87
2018-09-13T06:30:00.147Z,17.81
2018-09-13T06:31:00.030Z,17.82
2018-09-13T06:32:00.043Z,17.83
2018-09-13T06:33:00.212Z,17.75
2018-09-13T06:34:00.228Z,17.75
2018-09-13T06:35:00.171Z,17.75
2018-09-13T06:36:00.189Z,17.79
2018-09-13T06:37:00.151Z,17.78
2018-09-13T06:38:00.160Z,17.84
2018-09-13T06:39:00.168Z,17.88
2018-09-13T06:40:00.176Z,17.81
2018-09-13T06:41:00.002Z,17.78
2018-09-13T06:42:00.546Z,17.76
2018-09-13T06:43:00.543Z,17.74
2018-09-13T06:44:00.099Z,17.69
2018-09-13T06:45:00.107Z,17.67
2018-09-13T06:45:59.999Z,17.62
2018-09-13T06:47:00.124Z,17.58
2018-09-13T06:48:00.254Z,17.64
2018-09-13T06:48:59.999Z,17.62
2018-09-13T06:50:00.054Z,17.68
2018-09-13T06:50:59.987Z,17.7
2018-09-13T06:52:00.207Z,17.72
2018-09-13T06:53:00.112Z,17.72
2018-09-13T06:54:00.642Z,17.71
2018-09-13T06:55:00.204Z,17.74
2018-09-13T06:56:00.165Z,17.76
2018-09-13T06:57:00.127Z,17.79
2018-09-13T06:58:00.146Z,17.84
2018-09-13T06:58:59.981Z,17.88
2018-09-13T06:59:59.958Z,17.93
2018-09-13T07:01:00.153Z,17.95
2018-09-13T07:02:00.287Z,17.91
2018-09-13T07:03:00.553Z,17.95
2018-09-13T07:04:00.342Z,17.91
2018-09-13T07:05:00.117Z,17.92
2018-09-13T07:06:00.065Z,17.85
2018-09-13T07:07:00.296Z,17.83
2018-09-13T07:08:00.110Z,17.85
2018-09-13T07:09:00.555Z,17.88
2018-09-13T07:10:00.392Z,17.89
2018-09-13T07:11:00.471Z,17.89
2018-09-13T07:12:00.093Z,17.89
2018-09-13T07:13:00.181Z,17.91
2018-09-13T07:14:00.115Z,17.97
2018-09-13T07:15:00.092Z,17.98
2018-09-13T07:16:00.050Z,18.04
2018-09-13T07:17:00.176Z,18.04
2018-09-13T07:18:00.096Z,18.03
2018-09-13T07:19:00.073Z,18.02
2018-09-13T07:19:59.990Z,18.03
2018-09-13T07:21:00.042Z,18.02
2018-09-13T07:21:59.999Z,18.04
2018-09-13T07:23:00.238Z,18.05
2018-09-13T07:24:00.242Z,18
2018-09-13T07:25:00.150Z,17.99
2018-09-13T07:26:00.006Z,18
2018-09-13T07:27:00.200Z,17.98
2018-09-13T07:28:00.282Z,17.96
2018-09-13T07:29:00.085Z,17.99
2018-09-13T07:30:00.091Z,18.02
2018-09-13T07:31:00.775Z,18.01
2018-09-13T07:32:00.098Z,18.02
2018-09-13T07:33:00.113Z,17.98
2018-09-13T07:34:00.052Z,17.98
2018-09-13T07:35:00.079Z,18
2018-09-13T07:36:00.232Z,18.02
2018-09-13T07:37:00.077Z,18.07
2018-09-13T07:38:00.017Z,18.1
2018-09-13T07:39:00.088Z,18.11
2018-09-13T07:40:00.503Z,18.14
2018-09-13T07:41:00.120Z,18.12
2018-09-13T07:42:00.040Z,18.15
2018-09-13T07:43:00.719Z,18.15
2018-09-13T07:44:00.076Z,18.15
2018-09-13T07:45:00.094Z,18.13
2018-09-13T07:46:00.179Z,18.18
2018-09-13T07:47:00.253Z,18.15
2018-09-13T07:48:00.053Z,18.14
2018-09-13T07:49:00.507Z,18.16
2018-09-13T07:50:01.105Z,18.19
2018-09-13T07:51:00.265Z,18.18
2018-09-13T07:52:00.308Z,18.21
2018-09-13T07:53:00.174Z,18.23
2018-09-13T07:54:00.274Z,18.21
2018-09-13T07:55:00.123Z,18.21
2018-09-13T07:56:00.062Z,18.22
2018-09-13T07:57:00.174Z,18.22
2018-09-13T07:58:00.205Z,18.25
2018-09-13T07:59:00.550Z,18.3
2018-09-13T08:00:00.251Z,18.34
2018-09-13T08:01:00.368Z,18.32
2018-09-13T08:02:00.151Z,18.34
2018-09-13T08:03:00.370Z,18.34
2018-09-13T08:04:00.173Z,18.33
2018-09-13T08:05:00.812Z,18.35
2018-09-13T08:06:00.302Z,18.37
2018-09-13T08:07:00.144Z,18.42
2018-09-13T08:08:00.390Z,18.43
2018-09-13T08:09:00.197Z,18.48
2018-09-13T08:10:00.140Z,18.47
2018-09-13T08:11:00.119Z,18.46
2018-09-13T08:12:01.475Z,18.46
2018-09-13T08:13:00.218Z,18.52
2018-09-13T08:14:00.343Z,18.53
2018-09-13T08:15:00.536Z,18.53
2018-09-13T08:16:01.392Z,18.54
2018-09-13T08:17:00.212Z,18.52
2018-09-13T08:18:00.150Z,18.52
2018-09-13T08:19:00.329Z,18.51
2018-09-13T08:20:00.179Z,18.51
2018-09-13T08:21:00.129Z,18.5
2018-09-13T08:22:00.794Z,18.46
2018-09-13T08:23:00.238Z,18.5
2018-09-13T08:24:00.218Z,18.5
2018-09-13T08:25:00.599Z,18.51
2018-09-13T08:26:00.283Z,18.49
2018-09-13T08:27:00.895Z,18.46
2018-09-13T08:28:00.247Z,18.48
2018-09-13T08:29:00.218Z,18.44
2018-09-13T08:30:00.128Z,18.45
2018-09-13T08:31:00.262Z,18.45
2018-09-13T08:32:00.228Z,18.42
2018-09-13T08:33:00.438Z,18.48
2018-09-13T08:34:00.213Z,18.53
2018-09-13T08:35:02.191Z,18.51
2018-09-13T08:36:00.215Z,18.56
2018-09-13T08:37:00.766Z,18.58
2018-09-13T08:38:00.182Z,18.6
2018-09-13T08:39:00.082Z,18.6
2018-09-13T08:40:01.664Z,18.67
2018-09-13T08:41:00.579Z,18.7
2018-09-13T08:42:00.147Z,18.7
2018-09-13T08:43:00.528Z,18.74
2018-09-13T08:44:00.089Z,18.74
2018-09-13T08:45:00.080Z,18.72
2018-09-13T08:46:00.145Z,18.74
2018-09-13T08:47:00.131Z,18.76
2018-09-13T08:48:00.090Z,18.78
2018-09-13T08:49:00.079Z,18.83
2018-09-13T08:50:00.143Z,18.89
2018-09-13T08:51:00.371Z,18.95
2018-09-13T08:52:00.633Z,18.96
2018-09-13T08:53:00.267Z,18.91
2018-09-13T08:54:00.206Z,18.98
2018-09-13T08:55:00.601Z,19
2018-09-13T08:56:00.119Z,18.95
2018-09-13T08:57:00.099Z,18.95
2018-09-13T08:58:00.103Z,18.94
2018-09-13T08:59:00.489Z,19
2018-09-13T09:00:00.733Z,18.99
2018-09-13T09:01:00.255Z,19.03
2018-09-13T09:02:00.568Z,19.04
2018-09-13T09:03:00.470Z,19.03
2018-09-13T09:04:02.394Z,19.09
2018-09-13T09:05:00.323Z,19.09
2018-09-13T09:06:00.421Z,19.13
2018-09-13T09:07:00.262Z,19.18
2018-09-13T09:08:00.221Z,19.14
2018-09-13T09:09:00.265Z,19.13
2018-09-13T09:10:00.531Z,19.19
2018-09-13T09:11:00.261Z,19.23
2018-09-13T09:12:01.861Z,19.23
2018-09-13T09:13:00.228Z,19.15
2018-09-13T09:14:00.099Z,19.22
2018-09-13T09:15:00.315Z,19.28
2018-09-13T09:16:00.248Z,19.27
2018-09-13T09:17:00.150Z,19.27
2018-09-13T09:18:00.197Z,19.28
2018-09-13T09:19:00.265Z,19.32
2018-09-13T09:20:00.211Z,19.34
2018-09-13T09:21:00.164Z,19.39
2018-09-13T09:22:00.132Z,19.38
2018-09-13T09:23:00.203Z,19.4
2018-09-13T09:24:00.505Z,19.43
2018-09-13T09:25:00.426Z,19.44
2018-09-13T09:26:00.622Z,19.48
2018-09-13T09:27:00.318Z,19.48
2018-09-13T09:28:00.056Z,19.51
2018-09-13T09:29:01.420Z,19.54
2018-09-13T09:30:00.180Z,19.54
2018-09-13T09:31:00.135Z,19.54
2018-09-13T09:32:00.111Z,19.56
2018-09-13T09:33:00.190Z,19.58
2018-09-13T09:34:00.211Z,19.62
2018-09-13T09:35:01.089Z,19.63
2018-09-13T09:36:00.140Z,19.62
2018-09-13T09:37:00.153Z,19.63
2018-09-13T09:38:00.239Z,19.68
2018-09-13T09:39:00.122Z,19.73
2018-09-13T09:40:00.428Z,19.76
2018-09-13T09:41:00.086Z,19.79
2018-09-13T09:42:00.124Z,19.85
2018-09-13T09:43:00.421Z,19.91
2018-09-13T09:44:00.139Z,19.94
2018-09-13T09:45:02.078Z,19.99
2018-09-13T09:46:00.357Z,20.03
2018-09-13T09:47:00.546Z,20.1
2018-09-13T09:48:00.646Z,20.1
2018-09-13T09:49:01.107Z,20.17
2018-09-13T09:50:00.202Z,20.23
2018-09-13T09:51:00.127Z,20.24
2018-09-13T09:52:02.033Z,20.29
2018-09-13T09:53:00.180Z,20.33
2018-09-13T09:54:00.162Z,20.32
2018-09-13T09:55:00.142Z,20.37
2018-09-13T09:56:00.468Z,20.44
2018-09-13T09:57:00.197Z,20.49
2018-09-13T09:58:01.026Z,20.52
2018-09-13T09:59:00.106Z,20.52
2018-09-13T10:00:00.194Z,20.55
2018-09-13T10:01:00.187Z,20.54
2018-09-13T10:02:00.143Z,20.55
2018-09-13T10:03:00.752Z,20.62
2018-09-13T10:04:00.140Z,20.68
2018-09-13T10:05:00.149Z,20.7
2018-09-13T10:06:00.139Z,20.8
2018-09-13T10:07:00.118Z,20.8
2018-09-13T10:08:00.171Z,20.85
2018-09-13T10:09:00.868Z,20.9
2018-09-13T10:10:00.170Z,20.88
2018-09-13T10:11:00.101Z,20.91
2018-09-13T10:12:00.777Z,20.97
2018-09-13T10:13:00.366Z,21.04
2018-09-13T10:14:00.259Z,21.03
2018-09-13T10:15:00.811Z,21.04
2018-09-13T10:16:00.583Z,20.97
2018-09-13T10:17:00.125Z,21.02
2018-09-13T10:18:00.133Z,21
2018-09-13T10:19:00.166Z,21.03
2018-09-13T10:20:00.212Z,21.03
2018-09-13T10:21:00.184Z,21.12
2018-09-13T10:22:00.249Z,21.22
2018-09-13T10:23:01.088Z,21.31
2018-09-13T10:24:00.341Z,21.38
2018-09-13T10:25:00.224Z,21.46
2018-09-13T10:26:00.166Z,21.49
2018-09-13T10:27:01.145Z,21.61
2018-09-13T10:28:00.204Z,21.6
2018-09-13T10:29:00.230Z,21.59
2018-09-13T10:30:00.275Z,21.62
2018-09-13T10:31:01.533Z,21.69
2018-09-13T10:32:00.360Z,21.65
2018-09-13T10:33:00.253Z,21.72
2018-09-13T10:34:00.276Z,21.74
2018-09-13T10:35:00.280Z,21.76
2018-09-13T10:36:00.143Z,21.78
2018-09-13T10:37:00.508Z,21.78
2018-09-13T10:38:00.293Z,21.79
2018-09-13T10:39:00.394Z,21.8
2018-09-13T10:40:00.341Z,21.75
2018-09-13T10:41:00.630Z,21.75
2018-09-13T10:42:00.340Z,21.78
2018-09-13T10:43:00.192Z,21.69
2018-09-13T10:44:01.275Z,21.64
2018-09-13T10:45:00.231Z,21.65
2018-09-13T10:46:00.554Z,21.65
2018-09-13T10:47:00.452Z,21.68
2018-09-13T10:48:00.768Z,21.64
2018-09-13T10:49:00.378Z,21.56
2018-09-13T10:50:00.590Z,21.54
2018-09-13T10:51:00.495Z,21.53
2018-09-13T10:52:00.284Z,21.52
2018-09-13T10:53:00.294Z,21.46
2018-09-13T10:54:00.291Z,21.51
2018-09-13T10:55:00.307Z,21.5
2018-09-13T10:56:00.955Z,21.44
2018-09-13T10:57:00.328Z,21.43
2018-09-13T10:58:00.337Z,21.41
2018-09-13T10:59:01.029Z,21.4
2018-09-13T11:00:00.368Z,21.4
2018-09-13T11:01:00.385Z,21.38
2018-09-13T11:02:00.161Z,21.35
2018-09-13T11:03:00.382Z,21.36
2018-09-13T11:04:00.638Z,21.34
2018-09-13T11:05:01.305Z,21.32
2018-09-13T11:06:00.423Z,21.33
2018-09-13T11:07:00.594Z,21.34
2018-09-13T11:08:00.406Z,21.3
2018-09-13T11:09:00.358Z,21.33
2018-09-13T11:10:00.301Z,21.29
2018-09-13T11:11:03.037Z,21.28
2018-09-13T11:12:00.165Z,21.29
2018-09-13T11:13:00.161Z,21.28
2018-09-13T11:14:00.208Z,21.31
2018-09-13T11:15:00.492Z,21.28
2018-09-13T11:16:00.486Z,21.3
2018-09-13T11:17:00.708Z,21.24
2018-09-13T11:18:00.198Z,21.22
2018-09-13T11:19:00.335Z,21.25
2018-09-13T11:20:00.367Z,21.22
2018-09-13T11:21:00.256Z,21.19
2018-09-13T11:22:00.868Z,21.19
2018-09-13T11:23:00.419Z,21.17
2018-09-13T11:24:00.196Z,21.15
2018-09-13T11:25:00.408Z,21.19
2018-09-13T11:26:00.328Z,21.21
2018-09-13T11:27:00.754Z,21.24
2018-09-13T11:28:00.424Z,21.25
2018-09-13T11:29:00.176Z,21.27
2018-09-13T11:30:00.192Z,21.25
2018-09-13T11:31:00.187Z,21.22
2018-09-13T11:32:00.373Z,21.26
2018-09-13T11:33:00.253Z,21.23
2018-09-13T11:34:00.250Z,21.22
2018-09-13T11:35:00.373Z,21.27
2018-09-13T11:36:00.219Z,21.26
2018-09-13T11:37:00.198Z,21.27
2018-09-13T11:38:00.390Z,21.28
2018-09-13T11:39:00.246Z,21.2
2018-09-13T11:40:01.848Z,21.2
2018-09-13T11:41:05.049Z,21.19
2018-09-13T11:42:00.294Z,21.2
2018-09-13T11:43:00.240Z,21.2
2018-09-13T11:44:00.312Z,21.21
2018-09-13T11:45:00.352Z,21.22
2018-09-13T11:46:00.237Z,21.22
2018-09-13T11:47:00.347Z,21.22
2018-09-13T11:48:00.198Z,21.21
2018-09-13T11:49:00.223Z,21.21
2018-09-13T11:50:00.477Z,21.22
2018-09-13T11:51:00.256Z,21.26
2018-09-13T11:52:00.231Z,21.25
2018-09-13T11:53:00.410Z,21.24
2018-09-13T11:54:00.767Z,21.27
2018-09-13T11:55:00.221Z,21.29
2018-09-13T11:56:00.300Z,21.29
2018-09-13T11:57:00.470Z,21.29
2018-09-13T11:58:00.383Z,21.22
2018-09-13T11:59:00.573Z,21.2
2018-09-13T12:00:00.289Z,21.2
2018-09-13T12:01:00.670Z,21.21
2018-09-13T12:02:01.171Z,21.21
2018-09-13T12:03:00.213Z,21.15
2018-09-13T12:04:00.291Z,21.14
2018-09-13T12:05:00.271Z,21.11
2018-09-13T12:06:00.336Z,21.13
2018-09-13T12:07:00.242Z,21.15
2018-09-13T12:08:00.600Z,21.09
2018-09-13T12:09:00.413Z,21.07
2018-09-13T12:10:00.451Z,21.06
2018-09-13T12:11:00.427Z,21.01
2018-09-13T12:12:00.553Z,21.03
2018-09-13T12:13:00.256Z,21.01
2018-09-13T12:14:00.237Z,20.96
2018-09-13T12:15:00.272Z,20.94
2018-09-13T12:16:00.217Z,20.95
2018-09-13T12:17:00.363Z,20.96
2018-09-13T12:18:01.770Z,20.94
2018-09-13T12:19:00.241Z,20.86
2018-09-13T12:20:00.663Z,20.83
2018-09-13T12:21:00.272Z,20.83
2018-09-13T12:22:00.244Z,20.84
2018-09-13T12:23:00.506Z,20.83
2018-09-13T12:24:00.434Z,20.87
2018-09-13T12:25:00.284Z,20.9
2018-09-13T12:26:00.425Z,20.94
2018-09-13T12:27:00.223Z,20.95
2018-09-13T12:28:07.491Z,20.93
2018-09-13T12:29:01.551Z,20.86
2018-09-13T12:30:00.289Z,20.81
2018-09-13T12:31:00.251Z,20.82
2018-09-13T12:32:00.348Z,20.83
2018-09-13T12:33:00.892Z,20.85
2018-09-13T12:34:00.243Z,20.89
2018-09-13T12:35:00.466Z,20.89
2018-09-13T12:36:00.369Z,20.9
2018-09-13T12:37:00.234Z,20.91
2018-09-13T12:38:00.875Z,20.95
2018-09-13T12:39:00.278Z,20.92
2018-09-13T12:40:00.362Z,20.96
2018-09-13T12:41:00.424Z,20.95
2018-09-13T12:42:00.972Z,20.93
2018-09-13T12:43:00.457Z,20.93
2018-09-13T12:44:00.241Z,20.96
2018-09-13T12:45:00.325Z,21
2018-09-13T12:46:00.253Z,21
2018-09-13T12:47:00.342Z,21.02
2018-09-13T12:48:00.351Z,21.03
2018-09-13T12:49:00.527Z,21.02
2018-09-13T12:50:01.645Z,21.08
2018-09-13T12:51:00.379Z,21.1
2018-09-13T12:52:00.228Z,21.15
2018-09-13T12:53:00.288Z,21.19
2018-09-13T12:54:00.441Z,21.2
2018-09-13T12:55:00.323Z,21.22
2018-09-13T12:56:00.389Z,21.27
2018-09-13T12:57:00.995Z,21.33